Time;durP1;ratioP1;P1;durP2;ratioP2;P2;SDS_P1;SDS_P2;PMS_P1;PMS_P2;Temp;Humidity;BMP_temperature;BMP_pressure;BME280_temperature;BME280_humidity;BME280_pressure;Samples;Min_cycle;Max_cycle;Signal;HPM_P1;HPM_P2
2021/07/26 00:00:23;;;;;;;10.85;4.35;;;26.30;96.70;;;;;;4918219;28;20135;-71
2021/07/26 00:02:51;;;;;;;10.48;4.47;;;26.30;96.70;;;;;;4885158;29;20595;-71
2021/07/26 00:05:19;;;;;;;10.02;4.22;;;26.30;96.70;;;;;;4901023;29;20048;-71
2021/07/26 00:07:47;;;;;;;7.28;4.10;;;26.30;96.70;;;;;;4881747;29;20147;-72
2021/07/26 00:10:17;;;;;;;8.90;4.35;;;26.30;96.70;;;;;;4902846;29;20048;-71
2021/07/26 00:12:45;;;;;;;12.50;4.53;;;26.20;96.70;;;;;;4901117;29;20475;-71
2021/07/26 00:15:13;;;;;;;11.40;4.40;;;26.30;96.70;;;;;;4885463;29;20040;-71
2021/07/26 00:17:42;;;;;;;9.93;4.50;;;26.20;96.70;;;;;;4902353;29;20060;-71
2021/07/26 00:20:12;;;;;;;9.18;4.35;;;26.10;96.70;;;;;;4932525;28;20044;-71
2021/07/26 00:22:40;;;;;;;13.57;4.45;;;26.10;96.70;;;;;;4901591;29;20088;-71
2021/07/26 00:25:09;;;;;;;12.57;4.68;;;26.10;96.70;;;;;;4903555;29;20082;-71
2021/07/26 00:27:40;;;;;;;8.65;3.67;;;26.00;96.70;;;;;;4900654;29;20138;-71
2021/07/26 00:30:09;;;;;;;7.13;3.97;;;26.00;96.70;;;;;;4886392;29;20040;-72
2021/07/26 00:32:37;;;;;;;9.57;3.58;;;26.00;96.70;;;;;;4897312;29;20111;-71
2021/07/26 00:35:45;;;;;;;7.40;3.83;;;26.00;96.70;;;;;;4896593;29;20347;-71
2021/07/26 00:38:13;;;;;;;8.77;4.15;;;26.00;96.70;;;;;;4893928;29;20043;-70
2021/07/26 00:40:42;;;;;;;9.77;3.85;;;26.00;96.70;;;;;;4901625;29;20458;-71
2021/07/26 00:43:21;;;;;;;9.50;4.18;;;25.90;96.70;;;;;;4930011;28;20130;-71
2021/07/26 00:45:51;;;;;;;8.35;3.83;;;25.80;96.70;;;;;;4901149;29;20050;-71
2021/07/26 00:48:20;;;;;;;8.55;3.92;;;25.80;96.70;;;;;;4901669;29;20503;-71
2021/07/26 00:51:10;;;;;;;9.48;4.20;;;25.70;96.70;;;;;;4895925;29;20048;-71
2021/07/26 00:53:38;;;;;;;7.55;3.70;;;25.80;96.70;;;;;;4902019;29;20138;-71
2021/07/26 00:56:09;;;;;;;10.02;4.13;;;25.80;96.70;;;;;;4896061;29;20043;-71
2021/07/26 00:58:39;;;;;;;7.75;4.20;;;25.70;96.70;;;;;;4901736;29;20696;-71
2021/07/26 01:01:09;;;;;;;9.75;3.95;;;25.70;96.70;;;;;;4911305;28;20410;-70
2021/07/26 01:03:41;;;;;;;6.35;4.13;;;25.70;96.70;;;;;;4905273;29;20040;-71
2021/07/26 01:06:14;;;;;;;7.97;3.65;;;25.60;96.70;;;;;;4899163;29;20635;-71
2021/07/26 01:08:45;;;;;;;8.18;3.80;;;25.60;96.70;;;;;;4897263;29;20054;-72
2021/07/26 01:11:14;;;;;;;11.63;4.28;;;25.50;96.70;;;;;;4897218;29;20521;-71
2021/07/26 01:13:45;;;;;;;10.40;3.95;;;25.40;96.70;;;;;;4900059;29;20427;-71
2021/07/26 01:16:15;;;;;;;11.30;4.28;;;25.30;96.70;;;;;;4899167;29;20132;-71
2021/07/26 01:18:45;;;;;;;8.48;3.83;;;25.30;96.70;;;;;;4899070;29;20048;-71
2021/07/26 01:21:16;;;;;;;7.97;4.45;;;25.30;96.70;;;;;;4898945;29;20451;-71
2021/07/26 01:23:46;;;;;;;10.23;4.05;;;25.40;96.70;;;;;;4899198;29;20408;-71
2021/07/26 01:26:25;;;;;;;8.27;4.00;;;25.40;96.70;;;;;;4898931;29;20042;-71
2021/07/26 01:28:56;;;;;;;8.57;3.92;;;25.50;96.70;;;;;;4899090;29;20048;-70
2021/07/26 01:31:24;;;;;;;9.35;3.83;;;25.40;96.70;;;;;;4910872;29;20489;-70
2021/07/26 01:33:57;;;;;;;8.88;4.10;;;25.40;96.70;;;;;;4898013;29;20052;-71
2021/07/26 01:36:28;;;;;;;6.90;3.50;;;25.40;96.70;;;;;;4920675;29;20141;-71
2021/07/26 01:38:57;;;;;;;9.02;3.83;;;25.50;96.70;;;;;;4900802;29;20044;-70
2021/07/26 01:41:30;;;;;;;8.98;3.85;;;25.50;96.70;;;;;;4926817;28;20052;-70
2021/07/26 01:44:10;;;;;;;8.48;4.10;;;25.50;96.70;;;;;;4895046;29;20520;-71
2021/07/26 01:47:00;;;;;;;9.15;4.25;;;25.50;96.70;;;;;;4935098;28;20074;-70
2021/07/26 01:49:49;;;;;;;12.35;4.53;;;25.40;96.70;;;;;;4900046;29;20127;-71
2021/07/26 01:52:19;;;;;;;7.38;3.72;;;25.40;96.70;;;;;;4890245;29;20613;-71
2021/07/26 01:54:49;;;;;;;8.45;3.88;;;25.30;96.70;;;;;;4912377;29;20051;-71
2021/07/26 01:57:17;;;;;;;7.80;4.03;;;25.40;96.70;;;;;;4912210;29;20064;-71
2021/07/26 01:59:46;;;;;;;8.95;3.95;;;25.40;96.70;;;;;;4897117;28;20044;-71
2021/07/26 02:02:17;;;;;;;7.93;4.07;;;25.40;96.70;;;;;;4896877;29;20040;-72
2021/07/26 02:04:50;;;;;;;8.23;4.10;;;25.40;96.70;;;;;;4899552;29;20328;-71
2021/07/26 02:07:21;;;;;;;9.00;4.03;;;25.30;96.70;;;;;;4900680;29;20040;-71
2021/07/26 02:09:52;;;;;;;10.38;4.25;;;25.30;96.70;;;;;;4929086;28;20068;-72
2021/07/26 02:13:10;;;;;;;6.88;4.07;;;25.20;96.70;;;;;;4880860;29;20044;-71
2021/07/26 02:15:39;;;;;;;7.93;3.83;;;25.20;96.70;;;;;;4917046;28;20139;-71
2021/07/26 02:18:08;;;;;;;8.05;4.30;;;25.20;96.70;;;;;;4921385;28;20455;-71
2021/07/26 02:20:38;;;;;;;9.63;4.28;;;25.10;96.70;;;;;;4931123;28;20394;-71
2021/07/26 02:23:11;;;;;;;7.68;3.85;;;25.00;96.70;;;;;;4898273;29;20137;-72
2021/07/26 02:25:42;;;;;;;9.73;4.40;;;25.00;96.70;;;;;;4929954;29;20048;-71
2021/07/26 02:28:12;;;;;;;9.13;4.18;;;25.00;96.70;;;;;;4898379;29;20729;-71
2021/07/26 02:30:41;;;;;;;10.73;4.68;;;25.00;96.70;;;;;;4899409;29;20541;-71
2021/07/26 02:33:10;;;;;;;11.23;4.57;;;24.90;96.70;;;;;;4899379;29;20096;-71
2021/07/26 02:35:39;;;;;;;10.02;4.22;;;24.90;96.70;;;;;;4902135;29;20044;-71
2021/07/26 02:38:09;;;;;;;9.80;4.22;;;25.00;96.70;;;;;;4901781;29;20565;-71
2021/07/26 02:40:37;;;;;;;7.65;4.45;;;25.00;96.70;;;;;;4902439;29;20075;-72
2021/07/26 02:43:05;;;;;;;7.05;4.55;;;25.10;96.70;;;;;;4901558;29;20154;-71
2021/07/26 02:45:36;;;;;;;9.30;4.90;;;25.10;96.70;;;;;;4901874;29;20051;-71
2021/07/26 02:48:04;;;;;;;10.77;4.32;;;25.00;96.70;;;;;;4900466;29;20040;-71
2021/07/26 02:50:33;;;;;;;10.38;4.72;;;25.10;96.70;;;;;;4902936;29;20047;-71
2021/07/26 02:53:02;;;;;;;9.77;3.90;;;25.00;96.70;;;;;;4902587;29;20047;-72
2021/07/26 02:55:32;;;;;;;11.13;4.32;;;24.90;96.70;;;;;;4884550;29;20060;-71
2021/07/26 02:58:00;;;;;;;8.25;3.88;;;24.90;96.70;;;;;;4903988;29;20486;-71
2021/07/26 03:00:29;;;;;;;11.32;4.20;;;24.50;96.70;;;;;;4900666;29;20051;-71
2021/07/26 03:02:57;;;;;;;11.23;4.00;;;24.40;96.70;;;;;;4903478;29;20044;-71
2021/07/26 03:05:27;;;;;;;7.13;3.65;;;24.50;96.70;;;;;;4900350;29;20502;-71
2021/07/26 03:07:55;;;;;;;7.95;4.40;;;24.60;96.70;;;;;;4901075;29;20048;-71
2021/07/26 03:10:24;;;;;;;10.75;5.35;;;24.70;96.70;;;;;;4896027;29;20574;-71
2021/07/26 03:12:53;;;;;;;12.52;4.22;;;24.80;96.70;;;;;;4914253;29;20056;-71
2021/07/26 03:15:23;;;;;;;10.68;4.07;;;24.90;96.70;;;;;;4898940;29;20048;-71
2021/07/26 03:17:51;;;;;;;11.40;4.53;;;24.90;96.70;;;;;;4902887;29;20048;-71
2021/07/26 03:20:20;;;;;;;8.73;4.38;;;24.80;96.70;;;;;;4900540;29;20032;-71
2021/07/26 03:22:56;;;;;;;9.80;4.97;;;24.70;96.70;;;;;;4917499;29;20628;-71
2021/07/26 03:25:25;;;;;;;;;;;24.70;96.70;;;;;;4916911;28;20107;-71
2021/07/26 03:27:55;;;;;;;11.98;4.63;;;24.80;96.70;;;;;;4917172;29;20021;-71
2021/07/26 03:30:24;;;;;;;9.85;4.47;;;24.80;96.70;;;;;;4901040;29;20079;-71
2021/07/26 03:32:52;;;;;;;9.07;4.18;;;24.70;96.70;;;;;;4904034;29;20050;-71
2021/07/26 03:35:21;;;;;;;7.57;4.00;;;24.60;96.70;;;;;;4899152;29;20051;-71
2021/07/26 03:37:51;;;;;;;13.50;4.70;;;24.60;96.70;;;;;;4904347;29;20074;-71
2021/07/26 03:40:20;;;;;;;8.73;4.20;;;24.70;96.70;;;;;;4915873;28;20135;-72
2021/07/26 03:42:49;;;;;;;8.73;3.97;;;24.70;96.70;;;;;;4902544;29;20067;-71
2021/07/26 03:45:21;;;;;;;8.38;4.38;;;24.70;96.70;;;;;;4902197;29;20051;-71
2021/07/26 03:47:51;;;;;;;9.75;4.05;;;24.80;96.70;;;;;;4916263;29;20068;-71
2021/07/26 03:50:21;;;;;;;8.23;3.92;;;24.90;96.70;;;;;;4903997;29;20076;-71
2021/07/26 03:52:52;;;;;;;9.35;4.57;;;25.00;96.70;;;;;;4900705;29;20585;-72
2021/07/26 03:55:23;;;;;;;11.18;4.47;;;25.00;96.70;;;;;;4900757;29;20524;-71
2021/07/26 03:57:53;;;;;;;9.25;3.97;;;25.00;96.70;;;;;;4905531;29;20067;-71
2021/07/26 04:00:24;;;;;;;10.27;4.05;;;25.00;96.70;;;;;;4888302;29;20068;-71
2021/07/26 04:08:22;;;;;;;10.18;4.85;;;25.00;96.70;;;;;;4916589;29;20510;-71
2021/07/26 04:10:59;;;;;;;10.40;4.45;;;24.90;96.70;;;;;;4903852;29;21116;-72
2021/07/26 04:13:28;;;;;;;7.28;3.92;;;24.90;96.70;;;;;;4928943;28;20056;-71
2021/07/26 04:15:58;;;;;;;8.98;4.55;;;24.90;96.70;;;;;;4899512;29;20380;-71
2021/07/26 04:18:28;;;;;;;8.65;4.35;;;24.90;96.70;;;;;;4903683;29;20052;-72
2021/07/26 04:20:57;;;;;;;9.63;4.93;;;25.00;96.70;;;;;;4904459;29;20688;-71
2021/07/26 04:23:25;;;;;;;10.15;5.30;;;25.00;96.70;;;;;;4899843;29;20043;-71
2021/07/26 04:25:54;;;;;;;9.13;4.80;;;25.00;96.70;;;;;;4916451;29;20048;-72
2021/07/26 04:28:22;;;;;;;14.30;5.40;;;25.00;96.70;;;;;;4901191;29;20052;-72
2021/07/26 04:30:50;;;;;;;9.65;4.93;;;25.00;96.70;;;;;;4910535;29;20051;-71
2021/07/26 04:33:20;;;;;;;7.15;4.00;;;24.90;96.70;;;;;;4909564;29;20101;-72
2021/07/26 04:35:49;;;;;;;6.07;3.70;;;24.90;96.70;;;;;;4891815;29;20062;-71
2021/07/26 04:38:17;;;;;;;10.00;5.13;;;24.90;96.70;;;;;;4903638;29;20044;-71
2021/07/26 04:40:46;;;;;;;10.40;4.20;;;24.90;96.70;;;;;;4907154;29;20051;-72
2021/07/26 04:43:14;;;;;;;9.35;5.25;;;24.90;96.70;;;;;;4921282;29;20131;-72
2021/07/26 04:45:42;;;;;;;8.02;4.45;;;24.90;96.70;;;;;;4905471;29;20046;-72
2021/07/26 04:48:11;;;;;;;9.45;5.00;;;24.80;96.70;;;;;;4907013;29;20537;-72
2021/07/26 04:50:41;;;;;;;7.03;4.57;;;24.90;96.70;;;;;;4905686;29;20475;-72
2021/07/26 04:53:09;;;;;;;12.40;4.35;;;24.90;96.70;;;;;;4907033;29;20429;-72
2021/07/26 04:55:37;;;;;;;9.82;4.63;;;24.90;96.70;;;;;;4920214;28;20266;-72
2021/07/26 04:58:06;;;;;;;9.48;4.50;;;24.80;96.70;;;;;;4906771;29;20047;-73
2021/07/26 05:00:34;;;;;;;10.43;4.97;;;24.90;96.70;;;;;;4904735;29;20378;-72
2021/07/26 05:03:07;;;;;;;8.43;4.50;;;24.90;96.70;;;;;;4909000;29;20606;-72
2021/07/26 05:05:36;;;;;;;10.32;4.93;;;24.90;96.70;;;;;;4918076;29;20055;-72
2021/07/26 05:08:06;;;;;;;9.35;4.50;;;24.90;96.70;;;;;;4908907;29;20044;-72
2021/07/26 05:10:34;;;;;;;7.20;4.50;;;24.90;96.70;;;;;;4906953;29;20418;-72
2021/07/26 05:13:03;;;;;;;7.35;3.90;;;24.90;96.70;;;;;;4909076;29;20048;-72
2021/07/26 05:15:31;;;;;;;9.10;4.63;;;24.90;96.70;;;;;;4899430;29;20056;-72
2021/07/26 05:18:00;;;;;;;9.98;4.60;;;24.90;96.70;;;;;;4908863;29;20605;-72
2021/07/26 05:20:28;;;;;;;9.15;4.85;;;24.90;96.70;;;;;;4903863;29;20059;-72
2021/07/26 05:22:56;;;;;;;10.05;4.80;;;24.80;96.70;;;;;;4908418;29;20131;-72
2021/07/26 05:25:26;;;;;;;8.88;4.18;;;24.90;96.70;;;;;;4918494;28;20050;-72
2021/07/26 05:27:55;;;;;;;9.38;4.20;;;25.00;96.70;;;;;;4908562;29;20451;-72
2021/07/26 05:30:24;;;;;;;14.00;5.30;;;25.00;96.70;;;;;;4905102;29;20049;-72
2021/07/26 05:32:53;;;;;;;7.53;4.53;;;25.20;96.70;;;;;;4907117;29;20040;-72
2021/07/26 05:35:22;;;;;;;8.60;4.97;;;25.20;96.70;;;;;;4905949;29;20593;-72
2021/07/26 05:37:50;;;;;;;9.98;4.85;;;25.30;96.70;;;;;;4891822;29;20040;-73
2021/07/26 05:40:19;;;;;;;11.55;3.90;;;25.30;96.70;;;;;;4905980;29;20048;-72
2021/07/26 05:42:49;;;;;;;10.02;4.43;;;25.30;96.70;;;;;;4924191;29;20406;-72
2021/07/26 05:45:17;;;;;;;7.00;4.35;;;25.40;96.70;;;;;;4905051;29;20036;-72
2021/07/26 05:47:49;;;;;;;7.00;3.97;;;25.40;96.70;;;;;;4907707;29;20111;-72
2021/07/26 05:50:18;;;;;;;9.68;4.60;;;25.40;96.70;;;;;;4906955;29;20627;-72
2021/07/26 05:52:47;;;;;;;9.85;4.60;;;25.50;96.70;;;;;;4921846;29;20115;-72
2021/07/26 05:55:16;;;;;;;8.90;4.03;;;25.60;96.70;;;;;;4902970;29;20506;-72
2021/07/26 05:57:48;;;;;;;10.27;4.80;;;25.60;96.70;;;;;;4904796;29;20047;-72
2021/07/26 06:00:35;;;;;;;10.27;4.60;;;25.80;96.70;;;;;;4908570;29;20044;-72
2021/07/26 06:03:04;;;;;;;10.15;4.50;;;25.80;96.70;;;;;;4907099;29;20503;-72
2021/07/26 06:05:32;;;;;;;10.57;4.75;;;25.80;96.70;;;;;;4908261;29;20052;-72
2021/07/26 06:08:01;;;;;;;11.82;4.47;;;25.90;96.70;;;;;;4906396;29;20541;-73
2021/07/26 06:10:30;;;;;;;8.63;4.15;;;25.90;96.70;;;;;;4904239;29;20059;-72
2021/07/26 06:12:58;;;;;;;11.70;4.85;;;26.00;96.70;;;;;;4906632;29;20040;-72
2021/07/26 06:15:28;;;;;;;11.75;4.43;;;26.00;96.70;;;;;;4906442;29;20147;-72
2021/07/26 06:17:56;;;;;;;9.63;3.90;;;26.10;96.70;;;;;;4918508;28;20059;-72
2021/07/26 06:20:24;;;;;;;13.80;4.40;;;26.20;96.70;;;;;;4920769;28;20414;-72
2021/07/26 06:22:54;;;;;;;8.65;4.47;;;26.20;96.70;;;;;;4908033;29;20095;-73
2021/07/26 06:25:22;;;;;;;11.52;4.55;;;26.20;96.70;;;;;;4907907;29;20040;-72
2021/07/26 06:27:51;;;;;;;9.90;4.90;;;26.20;96.70;;;;;;4905378;29;20040;-72
2021/07/26 06:30:19;;;;;;;11.05;4.70;;;26.30;96.70;;;;;;4906777;29;20163;-73
2021/07/26 06:32:53;;;;;;;15.75;5.35;;;26.40;96.70;;;;;;4905810;29;20048;-73
2021/07/26 06:35:21;;;;;;;14.48;6.25;;;26.40;96.70;;;;;;4907664;29;20654;-72
2021/07/26 06:37:49;;;;;;;10.05;5.35;;;26.50;96.70;;;;;;4907144;29;20067;-72
2021/07/26 06:40:17;;;;;;;11.93;6.90;;;26.40;96.70;;;;;;4892924;29;20057;-72
2021/07/26 06:42:46;;;;;;;12.90;7.85;;;26.30;96.70;;;;;;4903060;29;20159;-72
2021/07/26 06:45:16;;;;;;;13.75;7.47;;;26.30;96.70;;;;;;4934730;28;20063;-72
2021/07/26 06:47:44;;;;;;;13.02;6.82;;;26.40;96.70;;;;;;4905203;29;20502;-73
2021/07/26 06:50:14;;;;;;;11.45;5.32;;;26.40;96.70;;;;;;4907497;29;20055;-73
2021/07/26 06:52:42;;;;;;;14.95;5.00;;;26.50;96.70;;;;;;4907315;29;20447;-72
2021/07/26 06:55:11;;;;;;;14.05;5.70;;;26.50;96.70;;;;;;4919803;28;20394;-73
2021/07/26 06:57:39;;;;;;;11.52;5.72;;;26.60;96.70;;;;;;4918980;29;20053;-73
2021/07/26 07:00:08;;;;;;;13.38;5.63;;;26.70;96.70;;;;;;4902469;29;20032;-72
2021/07/26 07:02:36;;;;;;;11.88;4.50;;;26.70;96.70;;;;;;4921776;28;20519;-73
2021/07/26 07:05:05;;;;;;;10.48;4.95;;;26.70;96.70;;;;;;4905526;29;20580;-74
2021/07/26 07:07:35;;;;;;;11.48;5.95;;;26.70;96.70;;;;;;4922002;29;20055;-74
2021/07/26 07:10:03;;;;;;;11.50;5.03;;;26.70;96.70;;;;;;4904664;29;20478;-74
2021/07/26 07:12:32;;;;;;;12.63;5.10;;;26.60;96.70;;;;;;4902690;29;20040;-74
2021/07/26 07:15:01;;;;;;;11.48;5.60;;;26.60;96.70;;;;;;4901311;29;20419;-73
2021/07/26 07:17:29;;;;;;;13.73;5.90;;;26.70;96.70;;;;;;4907539;29;20056;-74
2021/07/26 07:20:02;;;;;;;12.18;5.75;;;26.70;96.70;;;;;;4904910;29;20517;-75
2021/07/26 07:22:30;;;;;;;11.02;4.85;;;26.70;96.70;;;;;;4910222;29;20574;-76
2021/07/26 07:25:00;;;;;;;10.05;5.18;;;26.70;96.70;;;;;;4916520;28;20049;-76
2021/07/26 07:27:28;;;;;;;12.02;5.75;;;26.60;96.70;;;;;;4910842;29;20470;-73
2021/07/26 07:30:12;;;;;;;9.80;5.60;;;26.60;96.70;;;;;;4908919;29;20047;-73
2021/07/26 07:32:40;;;;;;;10.30;4.28;;;26.70;96.70;;;;;;4912134;29;20051;-73
2021/07/26 07:35:09;;;;;;;12.93;5.20;;;26.70;96.70;;;;;;4905481;29;20104;-74
2021/07/26 07:37:39;;;;;;;10.75;4.90;;;26.70;96.70;;;;;;4910576;29;20040;-73
2021/07/26 07:40:10;;;;;;;13.55;5.20;;;26.80;96.70;;;;;;4907234;29;20058;-73
2021/07/26 07:42:38;;;;;;;9.98;4.65;;;26.80;96.70;;;;;;4909030;29;20047;-73
2021/07/26 07:45:08;;;;;;;10.55;4.88;;;26.90;96.70;;;;;;4910964;29;20307;-73
2021/07/26 07:47:36;;;;;;;12.77;4.95;;;26.90;96.70;;;;;;4908771;29;20155;-73
2021/07/26 07:50:05;;;;;;;9.38;4.30;;;26.90;96.70;;;;;;4907963;29;20044;-73
2021/07/26 07:52:34;;;;;;;9.77;5.32;;;27.00;96.70;;;;;;4908792;29;20055;-73
2021/07/26 07:55:03;;;;;;;13.15;4.85;;;27.00;96.70;;;;;;4904635;29;20044;-73
2021/07/26 07:57:36;;;;;;;12.68;5.18;;;27.00;96.70;;;;;;4923856;29;20056;-72
2021/07/26 08:00:05;;;;;;;14.55;6.35;;;27.10;96.70;;;;;;4908150;29;20047;-72
2021/07/26 08:02:33;;;;;;;10.75;5.15;;;27.10;96.70;;;;;;4909424;29;20621;-70
2021/07/26 08:05:01;;;;;;;10.40;5.15;;;27.20;96.70;;;;;;4907965;29;20055;-71
2021/07/26 08:07:30;;;;;;;13.27;4.80;;;27.40;96.70;;;;;;4921069;28;20518;-71
2021/07/26 08:09:58;;;;;;;10.63;5.13;;;27.50;96.70;;;;;;4907423;29;20479;-70
2021/07/26 08:12:26;;;;;;;15.82;4.57;;;27.60;96.70;;;;;;4904474;29;20503;-70
2021/07/26 08:14:56;;;;;;;11.18;4.13;;;27.60;96.70;;;;;;4906423;29;20075;-70
2021/07/26 08:17:25;;;;;;;10.70;4.20;;;27.80;96.70;;;;;;4939949;28;20079;-72
2021/07/26 08:19:54;;;;;;;11.10;4.90;;;28.00;96.70;;;;;;4907212;29;20501;-71
2021/07/26 08:22:22;;;;;;;10.63;4.65;;;28.20;96.70;;;;;;4936714;28;20107;-71
2021/07/26 08:24:50;;;;;;;16.92;5.10;;;28.40;96.70;;;;;;4908345;29;20394;-71
2021/07/26 08:27:18;;;;;;;12.80;4.78;;;28.50;96.70;;;;;;4905761;29;20043;-70
2021/07/26 08:29:47;;;;;;;13.18;4.75;;;28.60;96.70;;;;;;4904019;29;20048;-70
2021/07/26 08:32:16;;;;;;;11.60;3.92;;;28.70;96.70;;;;;;4905523;29;20052;-71
2021/07/26 08:34:45;;;;;;;11.88;4.60;;;28.70;96.70;;;;;;4939499;28;20087;-70
2021/07/26 08:37:13;;;;;;;12.63;4.65;;;28.70;96.70;;;;;;4905410;29;20044;-70
2021/07/26 08:39:41;;;;;;;10.88;4.45;;;28.80;96.70;;;;;;4907694;29;20506;-72
2021/07/26 08:42:09;;;;;;;20.52;5.90;;;28.90;96.70;;;;;;4907952;29;20054;-71
2021/07/26 08:44:38;;;;;;;13.35;4.65;;;28.90;96.70;;;;;;4907697;29;20549;-71
2021/07/26 08:47:06;;;;;;;15.45;4.78;;;28.80;96.70;;;;;;4918409;28;20067;-70
2021/07/26 08:49:37;;;;;;;10.98;4.40;;;28.80;96.70;;;;;;4908940;29;20051;-71
2021/07/26 08:52:05;;;;;;;10.18;4.30;;;28.80;96.70;;;;;;4922631;29;20056;-71
2021/07/26 08:54:35;;;;;;;15.23;5.05;;;28.80;96.70;;;;;;4909249;29;20062;-69
2021/07/26 08:57:03;;;;;;;13.50;4.80;;;28.90;96.70;;;;;;4905754;29;20132;-71
2021/07/26 08:59:32;;;;;;;11.40;4.60;;;29.00;96.70;;;;;;4907849;29;20410;-71
2021/07/26 09:02:00;;;;;;;12.95;4.55;;;29.20;96.70;;;;;;4910431;29;20063;-71
2021/07/26 09:04:29;;;;;;;10.65;5.25;;;29.40;96.70;;;;;;4906728;29;20090;-71
2021/07/26 09:07:04;;;;;;;11.13;4.20;;;29.50;96.70;;;;;;4908291;29;20127;-70
2021/07/26 09:09:44;;;;;;;13.73;4.93;;;29.60;96.70;;;;;;4919575;29;20048;-70
2021/07/26 09:12:30;;;;;;;13.65;4.32;;;29.60;96.70;;;;;;4937500;28;20417;-70
2021/07/26 09:14:58;;;;;;;13.38;5.00;;;29.60;96.70;;;;;;4907643;29;20127;-71
2021/07/26 09:17:36;;;;;;;10.80;4.47;;;29.50;96.70;;;;;;4920305;29;20503;-71
2021/07/26 09:20:05;;;;;;;12.32;4.72;;;29.40;96.70;;;;;;4904796;29;20526;-73
2021/07/26 09:22:37;;;;;;;11.80;4.35;;;29.40;96.70;;;;;;4907248;29;20051;-74
2021/07/26 09:25:20;;;;;;;13.77;4.55;;;29.50;96.70;;;;;;4907989;29;20096;-74
2021/07/26 09:28:04;;;;;;;13.98;4.60;;;29.60;96.70;;;;;;4908232;29;20043;-73
2021/07/26 09:30:34;;;;;;;9.27;3.90;;;29.60;96.70;;;;;;4906185;29;20092;-74
2021/07/26 09:33:04;;;;;;;11.18;4.30;;;29.60;96.70;;;;;;4906851;29;20040;-73
2021/07/26 09:35:32;;;;;;;10.65;4.47;;;29.70;96.70;;;;;;4905799;29;20047;-74
2021/07/26 09:38:03;;;;;;;7.65;4.78;;;29.80;96.70;;;;;;4915471;29;20103;-73
2021/07/26 09:40:32;;;;;;;8.85;4.65;;;30.10;96.70;;;;;;4920237;29;20047;-71
2021/07/26 09:43:19;;;;;;;11.10;4.45;;;30.20;96.70;;;;;;4907237;29;20414;-72
2021/07/26 09:45:49;;;;;;;13.13;4.35;;;30.20;96.70;;;;;;4906607;29;20056;-71
2021/07/26 09:48:18;;;;;;;9.63;4.05;;;30.20;96.70;;;;;;4906834;29;20553;-71
2021/07/26 09:50:47;;;;;;;9.68;4.30;;;30.20;96.70;;;;;;4909755;29;20477;-70
2021/07/26 09:53:18;;;;;;;10.32;3.95;;;30.20;96.70;;;;;;4905082;29;20072;-71
2021/07/26 09:55:47;;;;;;;9.88;4.47;;;30.20;96.70;;;;;;4934947;28;20502;-71
2021/07/26 09:58:17;;;;;;;11.25;4.35;;;30.30;96.70;;;;;;4906173;29;20135;-71
2021/07/26 10:00:46;;;;;;;8.63;4.07;;;30.40;96.70;;;;;;4915220;29;20462;-71
2021/07/26 10:03:15;;;;;;;15.27;4.82;;;30.50;96.70;;;;;;4916344;29;20041;-71
2021/07/26 10:05:44;;;;;;;12.10;4.25;;;30.50;96.50;;;;;;4920772;29;20092;-72
2021/07/26 10:08:12;;;;;;;7.35;3.92;;;30.50;96.20;;;;;;4901578;29;20055;-71
2021/07/26 10:10:42;;;;;;;10.73;4.55;;;30.50;96.00;;;;;;4906343;29;20132;-71
2021/07/26 10:13:14;;;;;;;10.65;4.10;;;30.70;96.10;;;;;;4904739;29;20371;-71
2021/07/26 10:15:42;;;;;;;9.35;4.38;;;30.80;95.80;;;;;;4904007;29;20508;-71
2021/07/26 10:18:10;;;;;;;9.68;4.47;;;30.80;95.40;;;;;;4915112;28;20566;-71
2021/07/26 10:20:44;;;;;;;11.43;4.38;;;30.60;95.90;;;;;;4918032;29;20139;-71
2021/07/26 10:23:19;;;;;;;8.10;4.30;;;30.60;96.10;;;;;;4901626;29;20314;-71
2021/07/26 10:25:55;;;;;;;13.77;4.90;;;30.70;96.00;;;;;;4903176;29;20467;-71
2021/07/26 10:28:26;;;;;;;9.45;4.70;;;30.80;95.80;;;;;;4916509;29;20135;-71
2021/07/26 10:30:56;;;;;;;13.20;4.90;;;30.70;95.60;;;;;;4939246;28;20071;-72
2021/07/26 10:33:24;;;;;;;11.27;4.47;;;30.70;95.50;;;;;;4902480;29;20053;-71
2021/07/26 10:35:54;;;;;;;16.50;5.47;;;30.80;95.70;;;;;;4907385;29;20048;-71
2021/07/26 10:38:53;;;;;;;9.63;4.18;;;30.90;94.90;;;;;;4903722;29;20044;-71
2021/07/26 10:41:58;;;;;;;8.73;4.57;;;31.00;94.80;;;;;;4901754;29;20060;-71
2021/07/26 10:44:47;;;;;;;13.38;4.38;;;31.20;94.50;;;;;;4906682;29;20528;-70
2021/07/26 10:47:17;;;;;;;10.82;4.72;;;31.50;94.00;;;;;;4904432;29;20289;-71
2021/07/26 10:50:11;;;;;;;11.00;4.55;;;31.70;93.20;;;;;;4907455;29;20043;-72
2021/07/26 10:52:44;;;;;;;8.68;4.53;;;31.80;92.30;;;;;;4905135;29;20048;-72
2021/07/26 10:55:53;;;;;;;9.82;4.85;;;31.80;93.50;;;;;;4909728;29;20063;-71
2021/07/26 10:59:06;;;;;;;10.68;4.50;;;31.90;93.40;;;;;;4910661;29;20044;-71
2021/07/26 11:01:40;;;;;;;9.93;4.80;;;32.20;91.90;;;;;;4825113;29;20058;-71
2021/07/26 11:04:34;;;;;;;9.80;4.55;;;32.10;91.70;;;;;;4928105;29;20131;-71
2021/07/26 11:07:08;;;;;;;8.02;4.15;;;32.00;92.50;;;;;;4918129;29;20048;-71
2021/07/26 11:09:53;;;;;;;10.45;4.47;;;32.00;92.30;;;;;;4910875;29;20040;-71
2021/07/26 11:12:56;;;;;;;10.17;4.57;;;32.10;92.60;;;;;;4906373;29;20040;-71
2021/07/26 11:15:25;;;;;;;11.88;5.03;;;32.10;91.70;;;;;;4904828;29;20072;-71
2021/07/26 11:18:19;;;;;;;8.88;4.60;;;32.10;91.70;;;;;;4908421;29;20444;-71
2021/07/26 11:20:59;;;;;;;10.10;4.80;;;32.20;91.20;;;;;;4908155;29;20044;-71
2021/07/26 11:23:47;;;;;;;13.82;5.63;;;32.50;90.30;;;;;;4910227;29;20468;-71
2021/07/26 11:26:21;;;;;;;13.30;5.03;;;32.40;90.30;;;;;;4907749;29;20048;-71
2021/07/26 11:28:52;;;;;;;8.30;4.75;;;32.40;90.70;;;;;;4903227;29;20040;-71
2021/07/26 11:31:26;;;;;;;10.32;4.72;;;32.70;90.80;;;;;;4908496;29;20055;-71
2021/07/26 11:34:07;;;;;;;7.82;4.55;;;32.90;91.20;;;;;;4910074;29;20131;-71
2021/07/26 11:36:36;;;;;;;9.70;4.45;;;33.00;90.70;;;;;;4907771;29;20054;-71
2021/07/26 11:39:06;;;;;;;11.82;4.32;;;32.70;90.50;;;;;;4922795;29;20458;-71
2021/07/26 11:41:35;;;;;;;9.43;4.43;;;32.60;91.60;;;;;;4910683;29;20098;-71
2021/07/26 11:44:04;;;;;;;12.63;5.45;;;32.70;90.80;;;;;;4907558;29;20051;-71
2021/07/26 11:46:33;;;;;;;11.90;4.53;;;32.80;91.10;;;;;;4914457;29;20087;-72
2021/07/26 11:49:03;;;;;;;10.50;4.25;;;32.90;89.60;;;;;;4907850;29;20044;-71
2021/07/26 11:51:34;;;;;;;10.15;4.45;;;33.00;90.50;;;;;;4935145;28;20048;-71
2021/07/26 11:54:05;;;;;;;12.68;5.30;;;33.20;88.80;;;;;;4902853;29;20048;-71
2021/07/26 11:56:34;;;;;;;11.50;4.82;;;33.40;88.40;;;;;;4893250;29;20054;-71
2021/07/26 11:59:20;;;;;;;10.43;5.28;;;33.40;89.10;;;;;;4907739;29;20096;-71
2021/07/26 12:01:56;;;;;;;11.30;4.68;;;33.20;89.40;;;;;;4910212;29;20123;-71
2021/07/26 12:04:30;;;;;;;11.60;5.20;;;33.50;88.60;;;;;;4907738;29;20044;-71
2021/07/26 12:06:59;;;;;;;7.13;4.32;;;33.40;88.70;;;;;;4910089;29;20048;-71
2021/07/26 12:09:28;;;;;;;10.77;4.18;;;33.30;88.10;;;;;;4905482;29;20059;-71
2021/07/26 12:12:08;;;;;;;14.35;5.05;;;33.50;88.70;;;;;;4910346;29;20054;-72
2021/07/26 12:14:38;;;;;;;8.38;4.78;;;33.60;88.40;;;;;;4905608;29;20127;-71
2021/07/26 12:17:09;;;;;;;14.95;5.57;;;33.60;88.00;;;;;;4909995;29;20146;-71
2021/07/26 12:19:40;;;;;;;10.35;5.25;;;33.70;87.80;;;;;;4909470;29;20044;-71
2021/07/26 12:22:38;;;;;;;9.60;4.82;;;33.70;86.80;;;;;;4907808;29;20056;-71
2021/07/26 12:25:19;;;;;;;13.55;4.75;;;33.70;86.70;;;;;;4925886;29;20410;-74
2021/07/26 12:27:59;;;;;;;14.48;4.70;;;33.60;87.00;;;;;;4903688;29;20059;-71
2021/07/26 12:30:36;;;;;;;9.65;5.10;;;33.60;86.60;;;;;;4940473;28;20044;-71
2021/07/26 12:33:06;;;;;;;13.18;4.70;;;33.60;86.70;;;;;;4916469;29;20525;-71
2021/07/26 12:35:36;;;;;;;9.95;4.50;;;33.50;86.90;;;;;;4909387;29;20052;-72
2021/07/26 12:38:14;;;;;;;10.77;5.13;;;33.40;87.40;;;;;;4900846;29;20045;-72
2021/07/26 12:40:44;;;;;;;9.43;4.40;;;33.60;87.50;;;;;;4909362;29;20092;-72
2021/07/26 12:43:16;;;;;;;13.98;4.88;;;33.80;87.10;;;;;;4908050;29;20052;-71
2021/07/26 12:45:59;;;;;;;9.20;4.50;;;33.90;86.10;;;;;;4905619;29;20044;-71
2021/07/26 12:48:29;;;;;;;12.48;5.53;;;34.10;86.60;;;;;;4905568;29;20514;-72
2021/07/26 12:50:59;;;;;;;14.00;4.80;;;34.20;86.20;;;;;;4907469;29;20044;-72
2021/07/26 12:53:28;;;;;;;14.65;5.05;;;34.10;85.60;;;;;;4907281;29;20718;-71
2021/07/26 12:55:57;;;;;;;13.63;5.25;;;34.10;86.50;;;;;;4937757;28;20510;-71
2021/07/26 12:58:26;;;;;;;9.57;4.78;;;34.30;86.10;;;;;;4918483;29;20036;-72
2021/07/26 13:00:54;;;;;;;11.40;5.47;;;34.30;86.20;;;;;;4908104;29;20063;-72
2021/07/26 13:03:23;;;;;;;11.85;4.75;;;34.40;85.20;;;;;;4908545;29;20047;-71
2021/07/26 13:05:51;;;;;;;12.27;5.13;;;34.50;84.90;;;;;;4906131;29;20076;-71
2021/07/26 13:08:21;;;;;;;14.48;5.00;;;34.50;85.00;;;;;;4906758;29;20095;-71